sensor_id;sensor_type;location;lat;lon;timestamp;P1;durP1;ratioP1;P2;durP2;ratioP2
5042;SDS011;2540;50.928;6.856;2022-09-25T00:00:03;32.90;;;17.40;;
5042;SDS011;2540;50.928;6.856;2022-09-25T00:02:29;30.63;;;17.00;;
5042;SDS011;2540;50.928;6.856;2022-09-25T00:04:54;42.80;;;18.73;;
5042;SDS011;2540;50.928;6.856;2022-09-25T00:07:19;33.50;;;17.87;;
5042;SDS011;2540;50.928;6.856;2022-09-25T00:09:44;42.83;;;19.80;;
5042;SDS011;2540;50.928;6.856;2022-09-25T00:12:10;32.33;;;17.93;;
5042;SDS011;2540;50.928;6.856;2022-09-25T00:14:35;35.53;;;18.23;;
5042;SDS011;2540;50.928;6.856;2022-09-25T00:17:00;37.37;;;18.60;;
5042;SDS011;2540;50.928;6.856;2022-09-25T00:19:25;37.57;;;18.87;;
5042;SDS011;2540;50.928;6.856;2022-09-25T00:22:09;35.00;;;18.10;;
5042;SDS011;2540;50.928;6.856;2022-09-25T00:24:34;35.43;;;17.60;;
5042;SDS011;2540;50.928;6.856;2022-09-25T00:26:59;36.23;;;19.53;;
5042;SDS011;2540;50.928;6.856;2022-09-25T00:29:25;36.47;;;19.87;;
5042;SDS011;2540;50.928;6.856;2022-09-25T00:31:50;36.10;;;19.03;;
5042;SDS011;2540;50.928;6.856;2022-09-25T00:34:15;38.67;;;18.53;;
5042;SDS011;2540;50.928;6.856;2022-09-25T00:36:41;51.73;;;21.30;;
5042;SDS011;2540;50.928;6.856;2022-09-25T00:39:06;49.60;;;20.90;;
5042;SDS011;2540;50.928;6.856;2022-09-25T00:41:31;39.13;;;19.70;;
5042;SDS011;2540;50.928;6.856;2022-09-25T00:43:57;45.43;;;21.30;;
5042;SDS011;2540;50.928;6.856;2022-09-25T00:46:24;41.20;;;20.60;;
5042;SDS011;2540;50.928;6.856;2022-09-25T00:48:55;41.90;;;22.10;;
5042;SDS011;2540;50.928;6.856;2022-09-25T00:51:24;40.43;;;21.43;;
5042;SDS011;2540;50.928;6.856;2022-09-25T00:53:52;43.13;;;22.40;;
5042;SDS011;2540;50.928;6.856;2022-09-25T00:56:18;42.03;;;22.07;;
5042;SDS011;2540;50.928;6.856;2022-09-25T00:58:43;44.07;;;21.57;;
5042;SDS011;2540;50.928;6.856;2022-09-25T01:01:09;39.10;;;22.00;;
5042;SDS011;2540;50.928;6.856;2022-09-25T01:03:34;44.53;;;24.37;;
5042;SDS011;2540;50.928;6.856;2022-09-25T01:05:59;39.00;;;20.67;;
5042;SDS011;2540;50.928;6.856;2022-09-25T01:08:27;43.60;;;22.90;;
5042;SDS011;2540;50.928;6.856;2022-09-25T01:10:54;47.03;;;22.13;;
5042;SDS011;2540;50.928;6.856;2022-09-25T01:13:19;36.90;;;21.40;;
5042;SDS011;2540;50.928;6.856;2022-09-25T01:18:23;46.50;;;20.30;;
5042;SDS011;2540;50.928;6.856;2022-09-25T01:20:59;43.00;;;21.60;;
5042;SDS011;2540;50.928;6.856;2022-09-25T01:31:26;43.47;;;21.73;;
5042;SDS011;2540;50.928;6.856;2022-09-25T01:33:54;43.43;;;22.47;;
5042;SDS011;2540;50.928;6.856;2022-09-25T01:38:51;37.90;;;22.92;;
5042;SDS011;2540;50.928;6.856;2022-09-25T01:41:19;40.17;;;21.30;;
5042;SDS011;2540;50.928;6.856;2022-09-25T01:43:51;33.87;;;20.00;;
5042;SDS011;2540;50.928;6.856;2022-09-25T01:46:19;40.00;;;21.03;;
5042;SDS011;2540;50.928;6.856;2022-09-25T01:48:46;37.17;;;19.13;;
5042;SDS011;2540;50.928;6.856;2022-09-25T01:51:35;42.43;;;20.40;;
5042;SDS011;2540;50.928;6.856;2022-09-25T01:54:01;38.50;;;19.10;;
5042;SDS011;2540;50.928;6.856;2022-09-25T01:56:29;42.70;;;20.40;;
5042;SDS011;2540;50.928;6.856;2022-09-25T02:01:29;38.60;;;19.50;;
5042;SDS011;2540;50.928;6.856;2022-09-25T02:03:56;40.33;;;18.33;;
5042;SDS011;2540;50.928;6.856;2022-09-25T02:06:22;35.50;;;20.03;;
5042;SDS011;2540;50.928;6.856;2022-09-25T02:08:54;36.30;;;19.50;;
5042;SDS011;2540;50.928;6.856;2022-09-25T02:11:21;29.00;;;16.70;;
5042;SDS011;2540;50.928;6.856;2022-09-25T02:13:49;34.80;;;18.00;;
5042;SDS011;2540;50.928;6.856;2022-09-25T02:16:17;35.60;;;17.03;;
5042;SDS011;2540;50.928;6.856;2022-09-25T02:18:45;29.87;;;16.60;;
5042;SDS011;2540;50.928;6.856;2022-09-25T02:24:16;32.83;;;15.70;;
5042;SDS011;2540;50.928;6.856;2022-09-25T02:26:43;32.70;;;14.77;;
5042;SDS011;2540;50.928;6.856;2022-09-25T02:29:08;33.67;;;15.40;;
5042;SDS011;2540;50.928;6.856;2022-09-25T02:31:35;38.33;;;16.80;;
5042;SDS011;2540;50.928;6.856;2022-09-25T02:34:03;30.53;;;15.27;;
5042;SDS011;2540;50.928;6.856;2022-09-25T02:36:28;33.73;;;15.30;;
5042;SDS011;2540;50.928;6.856;2022-09-25T02:38:54;30.20;;;14.63;;
5042;SDS011;2540;50.928;6.856;2022-09-25T02:48:51;24.63;;;14.35;;
5042;SDS011;2540;50.928;6.856;2022-09-25T02:53:52;27.60;;;14.57;;
5042;SDS011;2540;50.928;6.856;2022-09-25T02:56:23;33.27;;;13.50;;
5042;SDS011;2540;50.928;6.856;2022-09-25T02:58:50;24.33;;;11.57;;
5042;SDS011;2540;50.928;6.856;2022-09-25T03:01:17;28.80;;;11.97;;
5042;SDS011;2540;50.928;6.856;2022-09-25T03:03:44;18.53;;;11.47;;
5042;SDS011;2540;50.928;6.856;2022-09-25T03:06:10;25.83;;;10.30;;
5042;SDS011;2540;50.928;6.856;2022-09-25T03:08:37;17.80;;;9.50;;
5042;SDS011;2540;50.928;6.856;2022-09-25T03:11:07;16.33;;;9.17;;
5042;SDS011;2540;50.928;6.856;2022-09-25T03:13:33;21.57;;;10.03;;
5042;SDS011;2540;50.928;6.856;2022-09-25T03:16:00;19.60;;;8.97;;
5042;SDS011;2540;50.928;6.856;2022-09-25T03:18:26;14.53;;;6.80;;
5042;SDS011;2540;50.928;6.856;2022-09-25T03:20:52;13.70;;;6.50;;
5042;SDS011;2540;50.928;6.856;2022-09-25T03:23:17;12.23;;;5.43;;
5042;SDS011;2540;50.928;6.856;2022-09-25T03:25:43;13.27;;;6.40;;
5042;SDS011;2540;50.928;6.856;2022-09-25T03:28:09;10.40;;;4.97;;
5042;SDS011;2540;50.928;6.856;2022-09-25T03:30:35;10.73;;;4.23;;
5042;SDS011;2540;50.928;6.856;2022-09-25T03:33:02;13.87;;;4.60;;
5042;SDS011;2540;50.928;6.856;2022-09-25T03:35:27;9.77;;;4.60;;
5042;SDS011;2540;50.928;6.856;2022-09-25T03:37:52;10.90;;;4.23;;
5042;SDS011;2540;50.928;6.856;2022-09-25T03:40:17;14.03;;;4.13;;
5042;SDS011;2540;50.928;6.856;2022-09-25T03:42:43;24.00;;;4.43;;
5042;SDS011;2540;50.928;6.856;2022-09-25T03:45:08;12.00;;;4.60;;
5042;SDS011;2540;50.928;6.856;2022-09-25T03:47:34;7.07;;;4.27;;
5042;SDS011;2540;50.928;6.856;2022-09-25T03:49:59;8.13;;;4.00;;
5042;SDS011;2540;50.928;6.856;2022-09-25T03:52:24;14.90;;;4.07;;
5042;SDS011;2540;50.928;6.856;2022-09-25T03:54:49;9.50;;;3.53;;
5042;SDS011;2540;50.928;6.856;2022-09-25T03:57:15;8.13;;;2.80;;
5042;SDS011;2540;50.928;6.856;2022-09-25T03:59:40;10.80;;;3.47;;
5042;SDS011;2540;50.928;6.856;2022-09-25T04:02:05;6.40;;;2.30;;
5042;SDS011;2540;50.928;6.856;2022-09-25T04:04:31;5.53;;;2.60;;
5042;SDS011;2540;50.928;6.856;2022-09-25T04:06:56;12.53;;;3.30;;
5042;SDS011;2540;50.928;6.856;2022-09-25T04:09:21;10.73;;;2.63;;
5042;SDS011;2540;50.928;6.856;2022-09-25T04:11:47;13.77;;;3.70;;
5042;SDS011;2540;50.928;6.856;2022-09-25T04:14:12;14.03;;;4.23;;
5042;SDS011;2540;50.928;6.856;2022-09-25T04:16:38;7.30;;;3.20;;
5042;SDS011;2540;50.928;6.856;2022-09-25T04:19:03;11.07;;;3.73;;
5042;SDS011;2540;50.928;6.856;2022-09-25T04:21:29;6.10;;;3.70;;
5042;SDS011;2540;50.928;6.856;2022-09-25T04:23:54;10.37;;;3.37;;
5042;SDS011;2540;50.928;6.856;2022-09-25T04:26:38;8.63;;;3.57;;
5042;SDS011;2540;50.928;6.856;2022-09-25T04:29:03;14.43;;;4.07;;
5042;SDS011;2540;50.928;6.856;2022-09-25T04:31:29;12.47;;;3.00;;
5042;SDS011;2540;50.928;6.856;2022-09-25T04:33:54;7.40;;;3.10;;
5042;SDS011;2540;50.928;6.856;2022-09-25T04:36:19;16.57;;;3.50;;
5042;SDS011;2540;50.928;6.856;2022-09-25T04:38:45;7.40;;;4.00;;
5042;SDS011;2540;50.928;6.856;2022-09-25T04:41:10;7.53;;;3.57;;
5042;SDS011;2540;50.928;6.856;2022-09-25T04:43:35;18.30;;;3.30;;
5042;SDS011;2540;50.928;6.856;2022-09-25T04:46:01;6.33;;;3.80;;
5042;SDS011;2540;50.928;6.856;2022-09-25T04:48:27;10.20;;;3.00;;
5042;SDS011;2540;50.928;6.856;2022-09-25T04:50:52;4.90;;;3.07;;
5042;SDS011;2540;50.928;6.856;2022-09-25T04:53:17;6.33;;;3.03;;
5042;SDS011;2540;50.928;6.856;2022-09-25T04:55:43;11.00;;;3.17;;
5042;SDS011;2540;50.928;6.856;2022-09-25T04:58:09;15.33;;;2.87;;
5042;SDS011;2540;50.928;6.856;2022-09-25T05:00:35;11.97;;;2.23;;
5042;SDS011;2540;50.928;6.856;2022-09-25T05:03:01;6.20;;;2.60;;
5042;SDS011;2540;50.928;6.856;2022-09-25T05:05:27;14.17;;;2.50;;
5042;SDS011;2540;50.928;6.856;2022-09-25T05:07:55;7.53;;;2.87;;
5042;SDS011;2540;50.928;6.856;2022-09-25T05:10:21;12.30;;;2.77;;
5042;SDS011;2540;50.928;6.856;2022-09-25T05:12:47;5.47;;;3.27;;
5042;SDS011;2540;50.928;6.856;2022-09-25T05:15:12;7.93;;;2.13;;
5042;SDS011;2540;50.928;6.856;2022-09-25T05:17:38;12.23;;;2.80;;
5042;SDS011;2540;50.928;6.856;2022-09-25T05:20:03;11.03;;;2.57;;
5042;SDS011;2540;50.928;6.856;2022-09-25T05:22:28;8.23;;;1.80;;
5042;SDS011;2540;50.928;6.856;2022-09-25T05:24:53;12.87;;;2.50;;
5042;SDS011;2540;50.928;6.856;2022-09-25T05:27:18;9.90;;;2.67;;
5042;SDS011;2540;50.928;6.856;2022-09-25T05:29:45;4.00;;;2.30;;
5042;SDS011;2540;50.928;6.856;2022-09-25T05:32:10;16.13;;;3.20;;
5042;SDS011;2540;50.928;6.856;2022-09-25T05:34:35;15.23;;;2.80;;
5042;SDS011;2540;50.928;6.856;2022-09-25T05:37:01;10.83;;;1.93;;
5042;SDS011;2540;50.928;6.856;2022-09-25T05:39:27;9.03;;;2.60;;
5042;SDS011;2540;50.928;6.856;2022-09-25T05:41:52;13.90;;;4.23;;
5042;SDS011;2540;50.928;6.856;2022-09-25T05:44:17;9.80;;;1.80;;
5042;SDS011;2540;50.928;6.856;2022-09-25T05:46:42;13.83;;;2.53;;
5042;SDS011;2540;50.928;6.856;2022-09-25T05:49:08;8.87;;;2.60;;
5042;SDS011;2540;50.928;6.856;2022-09-25T05:51:33;5.47;;;2.30;;
5042;SDS011;2540;50.928;6.856;2022-09-25T05:53:58;8.20;;;2.17;;
5042;SDS011;2540;50.928;6.856;2022-09-25T05:56:26;6.73;;;1.83;;
5042;SDS011;2540;50.928;6.856;2022-09-25T05:58:51;8.30;;;2.17;;
5042;SDS011;2540;50.928;6.856;2022-09-25T06:01:18;6.60;;;1.87;;
5042;SDS011;2540;50.928;6.856;2022-09-25T06:03:44;12.93;;;2.10;;
5042;SDS011;2540;50.928;6.856;2022-09-25T06:06:09;12.73;;;3.03;;
5042;SDS011;2540;50.928;6.856;2022-09-25T06:08:35;5.33;;;2.03;;
5042;SDS011;2540;50.928;6.856;2022-09-25T06:11:00;11.80;;;1.67;;
5042;SDS011;2540;50.928;6.856;2022-09-25T06:13:29;12.50;;;2.40;;
5042;SDS011;2540;50.928;6.856;2022-09-25T06:15:56;15.90;;;2.40;;
5042;SDS011;2540;50.928;6.856;2022-09-25T06:18:22;6.43;;;1.63;;
5042;SDS011;2540;50.928;6.856;2022-09-25T06:20:47;5.73;;;2.43;;
5042;SDS011;2540;50.928;6.856;2022-09-25T06:23:13;7.77;;;1.50;;
5042;SDS011;2540;50.928;6.856;2022-09-25T06:25:38;8.00;;;2.07;;
5042;SDS011;2540;50.928;6.856;2022-09-25T06:28:03;11.30;;;2.00;;
5042;SDS011;2540;50.928;6.856;2022-09-25T06:30:30;8.90;;;2.47;;
5042;SDS011;2540;50.928;6.856;2022-09-25T06:33:19;12.83;;;1.80;;
5042;SDS011;2540;50.928;6.856;2022-09-25T06:35:44;4.40;;;1.97;;
5042;SDS011;2540;50.928;6.856;2022-09-25T06:38:09;9.40;;;2.10;;
5042;SDS011;2540;50.928;6.856;2022-09-25T06:40:35;5.40;;;2.40;;
5042;SDS011;2540;50.928;6.856;2022-09-25T06:43:02;9.33;;;2.43;;
5042;SDS011;2540;50.928;6.856;2022-09-25T06:45:28;9.93;;;2.70;;
5042;SDS011;2540;50.928;6.856;2022-09-25T06:47:55;9.77;;;3.70;;
5042;SDS011;2540;50.928;6.856;2022-09-25T06:50:24;5.40;;;2.07;;
5042;SDS011;2540;50.928;6.856;2022-09-25T06:52:51;13.57;;;2.13;;
5042;SDS011;2540;50.928;6.856;2022-09-25T06:55:16;12.37;;;3.10;;
5042;SDS011;2540;50.928;6.856;2022-09-25T06:57:41;5.13;;;2.43;;
5042;SDS011;2540;50.928;6.856;2022-09-25T07:00:06;10.07;;;2.27;;
5042;SDS011;2540;50.928;6.856;2022-09-25T07:02:32;6.23;;;2.10;;
5042;SDS011;2540;50.928;6.856;2022-09-25T07:05:15;7.70;;;2.20;;
5042;SDS011;2540;50.928;6.856;2022-09-25T07:07:42;12.33;;;2.93;;
5042;SDS011;2540;50.928;6.856;2022-09-25T07:10:08;12.30;;;3.27;;
5042;SDS011;2540;50.928;6.856;2022-09-25T07:12:34;6.83;;;2.47;;
5042;SDS011;2540;50.928;6.856;2022-09-25T07:15:03;10.80;;;2.67;;
5042;SDS011;2540;50.928;6.856;2022-09-25T07:17:34;7.80;;;2.80;;
5042;SDS011;2540;50.928;6.856;2022-09-25T07:20:03;13.13;;;2.60;;
5042;SDS011;2540;50.928;6.856;2022-09-25T07:22:28;11.93;;;2.90;;
5042;SDS011;2540;50.928;6.856;2022-09-25T07:24:53;8.50;;;2.57;;
5042;SDS011;2540;50.928;6.856;2022-09-25T07:27:18;8.30;;;2.47;;
5042;SDS011;2540;50.928;6.856;2022-09-25T07:29:44;10.30;;;2.70;;
5042;SDS011;2540;50.928;6.856;2022-09-25T07:32:09;7.00;;;2.53;;
5042;SDS011;2540;50.928;6.856;2022-09-25T07:34:35;5.90;;;2.50;;
5042;SDS011;2540;50.928;6.856;2022-09-25T07:37:01;13.90;;;2.87;;
5042;SDS011;2540;50.928;6.856;2022-09-25T07:39:26;12.50;;;2.77;;
5042;SDS011;2540;50.928;6.856;2022-09-25T07:41:53;6.37;;;2.30;;
5042;SDS011;2540;50.928;6.856;2022-09-25T07:44:18;17.03;;;3.13;;
5042;SDS011;2540;50.928;6.856;2022-09-25T07:46:43;7.87;;;2.13;;
5042;SDS011;2540;50.928;6.856;2022-09-25T07:49:09;9.03;;;1.90;;
5042;SDS011;2540;50.928;6.856;2022-09-25T07:51:35;19.40;;;2.73;;
5042;SDS011;2540;50.928;6.856;2022-09-25T07:54:00;5.27;;;2.30;;
5042;SDS011;2540;50.928;6.856;2022-09-25T07:56:25;6.00;;;1.93;;
5042;SDS011;2540;50.928;6.856;2022-09-25T07:58:53;9.73;;;2.03;;
5042;SDS011;2540;50.928;6.856;2022-09-25T08:01:18;10.50;;;2.20;;
5042;SDS011;2540;50.928;6.856;2022-09-25T08:03:43;5.13;;;1.83;;
5042;SDS011;2540;50.928;6.856;2022-09-25T08:06:09;6.87;;;2.00;;
5042;SDS011;2540;50.928;6.856;2022-09-25T08:08:36;7.07;;;1.40;;
5042;SDS011;2540;50.928;6.856;2022-09-25T08:11:02;5.80;;;1.70;;
5042;SDS011;2540;50.928;6.856;2022-09-25T08:13:27;3.47;;;1.53;;
5042;SDS011;2540;50.928;6.856;2022-09-25T08:15:53;5.07;;;1.50;;
5042;SDS011;2540;50.928;6.856;2022-09-25T08:18:18;7.87;;;1.70;;
5042;SDS011;2540;50.928;6.856;2022-09-25T08:20:44;4.00;;;1.63;;
5042;SDS011;2540;50.928;6.856;2022-09-25T08:23:09;10.83;;;2.07;;
5042;SDS011;2540;50.928;6.856;2022-09-25T08:25:34;10.97;;;1.73;;
5042;SDS011;2540;50.928;6.856;2022-09-25T08:27:59;7.93;;;1.40;;
5042;SDS011;2540;50.928;6.856;2022-09-25T08:30:25;4.90;;;1.00;;
5042;SDS011;2540;50.928;6.856;2022-09-25T08:32:50;9.57;;;1.40;;
5042;SDS011;2540;50.928;6.856;2022-09-25T08:35:16;10.93;;;1.20;;
5042;SDS011;2540;50.928;6.856;2022-09-25T08:37:41;8.80;;;1.00;;
5042;SDS011;2540;50.928;6.856;2022-09-25T08:40:25;6.50;;;1.30;;
5042;SDS011;2540;50.928;6.856;2022-09-25T08:42:52;9.60;;;1.67;;
5042;SDS011;2540;50.928;6.856;2022-09-25T08:48:09;4.93;;;1.30;;
5042;SDS011;2540;50.928;6.856;2022-09-25T08:50:57;5.67;;;1.50;;
5042;SDS011;2540;50.928;6.856;2022-09-25T08:53:23;4.90;;;1.50;;
5042;SDS011;2540;50.928;6.856;2022-09-25T08:55:48;2.40;;;1.10;;
5042;SDS011;2540;50.928;6.856;2022-09-25T08:58:33;5.10;;;1.33;;
5042;SDS011;2540;50.928;6.856;2022-09-25T09:01:04;10.17;;;2.50;;
5042;SDS011;2540;50.928;6.856;2022-09-25T09:03:30;3.90;;;1.47;;
5042;SDS011;2540;50.928;6.856;2022-09-25T09:05:58;16.83;;;1.67;;
5042;SDS011;2540;50.928;6.856;2022-09-25T09:08:25;8.23;;;1.47;;
5042;SDS011;2540;50.928;6.856;2022-09-25T09:10:53;3.93;;;1.70;;
5042;SDS011;2540;50.928;6.856;2022-09-25T09:13:23;5.10;;;1.30;;
5042;SDS011;2540;50.928;6.856;2022-09-25T09:18:17;9.02;;;1.88;;
5042;SDS011;2540;50.928;6.856;2022-09-25T09:23:16;5.20;;;1.13;;
5042;SDS011;2540;50.928;6.856;2022-09-25T09:25:45;3.40;;;1.13;;
5042;SDS011;2540;50.928;6.856;2022-09-25T09:30:59;6.53;;;1.17;;
5042;SDS011;2540;50.928;6.856;2022-09-25T09:46:55;4.60;;;1.20;;
5042;SDS011;2540;50.928;6.856;2022-09-25T09:54:38;4.65;;;1.17;;
5042;SDS011;2540;50.928;6.856;2022-09-25T09:57:07;6.40;;;1.13;;
5042;SDS011;2540;50.928;6.856;2022-09-25T09:59:39;4.70;;;1.27;;
5042;SDS011;2540;50.928;6.856;2022-09-25T10:04:49;4.67;;;1.00;;
5042;SDS011;2540;50.928;6.856;2022-09-25T10:07:16;5.57;;;1.23;;
5042;SDS011;2540;50.928;6.856;2022-09-25T10:09:43;10.77;;;1.47;;
5042;SDS011;2540;50.928;6.856;2022-09-25T10:12:18;5.27;;;1.43;;
5042;SDS011;2540;50.928;6.856;2022-09-25T10:14:47;8.30;;;1.00;;
5042;SDS011;2540;50.928;6.856;2022-09-25T10:17:13;11.63;;;1.60;;
5042;SDS011;2540;50.928;6.856;2022-09-25T10:20:03;3.73;;;1.43;;
5042;SDS011;2540;50.928;6.856;2022-09-25T10:22:26;3.53;;;1.23;;
5042;SDS011;2540;50.928;6.856;2022-09-25T10:24:53;4.50;;;1.10;;
5042;SDS011;2540;50.928;6.856;2022-09-25T10:27:20;7.70;;;1.27;;
5042;SDS011;2540;50.928;6.856;2022-09-25T10:29:46;6.53;;;1.30;;
5042;SDS011;2540;50.928;6.856;2022-09-25T10:32:28;4.77;;;1.10;;
5042;SDS011;2540;50.928;6.856;2022-09-25T10:34:53;1.60;;;0.70;;
5042;SDS011;2540;50.928;6.856;2022-09-25T10:37:19;6.97;;;1.40;;
5042;SDS011;2540;50.928;6.856;2022-09-25T10:39:58;5.47;;;1.47;;
5042;SDS011;2540;50.928;6.856;2022-09-25T10:42:37;5.47;;;0.90;;
5042;SDS011;2540;50.928;6.856;2022-09-25T10:48:01;12.03;;;1.77;;
5042;SDS011;2540;50.928;6.856;2022-09-25T10:51:06;8.30;;;1.53;;
5042;SDS011;2540;50.928;6.856;2022-09-25T10:53:32;8.60;;;2.20;;
5042;SDS011;2540;50.928;6.856;2022-09-25T10:56:40;5.57;;;1.70;;
5042;SDS011;2540;50.928;6.856;2022-09-25T10:58:53;6.10;;;1.50;;
5042;SDS011;2540;50.928;6.856;2022-09-25T11:01:19;6.70;;;1.43;;
5042;SDS011;2540;50.928;6.856;2022-09-25T11:03:46;3.87;;;1.50;;
5042;SDS011;2540;50.928;6.856;2022-09-25T11:06:31;3.80;;;1.20;;
5042;SDS011;2540;50.928;6.856;2022-09-25T11:11:52;5.50;;;1.23;;
5042;SDS011;2540;50.928;6.856;2022-09-25T11:14:28;2.80;;;1.00;;
5042;SDS011;2540;50.928;6.856;2022-09-25T11:16:56;7.37;;;1.40;;
5042;SDS011;2540;50.928;6.856;2022-09-25T11:19:29;4.20;;;1.30;;
5042;SDS011;2540;50.928;6.856;2022-09-25T11:21:57;2.97;;;1.00;;
5042;SDS011;2540;50.928;6.856;2022-09-25T11:26:55;4.77;;;1.57;;
5042;SDS011;2540;50.928;6.856;2022-09-25T11:29:28;4.20;;;0.70;;
5042;SDS011;2540;50.928;6.856;2022-09-25T11:39:17;2.63;;;0.93;;
5042;SDS011;2540;50.928;6.856;2022-09-25T11:44:50;3.30;;;0.90;;
5042;SDS011;2540;50.928;6.856;2022-09-25T11:47:31;4.00;;;1.30;;
5042;SDS011;2540;50.928;6.856;2022-09-25T11:49:57;4.67;;;1.10;;
5042;SDS011;2540;50.928;6.856;2022-09-25T11:52:29;7.10;;;1.10;;
5042;SDS011;2540;50.928;6.856;2022-09-25T11:55:30;1.67;;;0.80;;
5042;SDS011;2540;50.928;6.856;2022-09-25T12:09:14;4.20;;;1.60;;
5042;SDS011;2540;50.928;6.856;2022-09-25T12:11:30;3.47;;;1.60;;
5042;SDS011;2540;50.928;6.856;2022-09-25T12:14:09;1.80;;;1.20;;
5042;SDS011;2540;50.928;6.856;2022-09-25T12:16:40;6.20;;;1.73;;
5042;SDS011;2540;50.928;6.856;2022-09-25T12:21:40;1.83;;;1.30;;
5042;SDS011;2540;50.928;6.856;2022-09-25T12:24:10;3.70;;;1.27;;
5042;SDS011;2540;50.928;6.856;2022-09-25T12:36:56;2.10;;;1.80;;
5042;SDS011;2540;50.928;6.856;2022-09-25T12:42:11;6.60;;;2.50;;
5042;SDS011;2540;50.928;6.856;2022-09-25T12:47:08;5.63;;;1.88;;
5042;SDS011;2540;50.928;6.856;2022-09-25T12:49:39;4.23;;;1.80;;
5042;SDS011;2540;50.928;6.856;2022-09-25T12:52:21;5.17;;;1.83;;
5042;SDS011;2540;50.928;6.856;2022-09-25T12:57:23;11.53;;;1.47;;
5042;SDS011;2540;50.928;6.856;2022-09-25T12:59:52;5.70;;;1.50;;
5042;SDS011;2540;50.928;6.856;2022-09-25T13:09:59;4.43;;;1.77;;
5042;SDS011;2540;50.928;6.856;2022-09-25T13:15:10;3.97;;;1.40;;
5042;SDS011;2540;50.928;6.856;2022-09-25T13:17:36;6.27;;;1.00;;
5042;SDS011;2540;50.928;6.856;2022-09-25T13:22:46;4.63;;;1.30;;
5042;SDS011;2540;50.928;6.856;2022-09-25T13:25:12;4.50;;;1.33;;
5042;SDS011;2540;50.928;6.856;2022-09-25T13:27:40;7.03;;;1.53;;
5042;SDS011;2540;50.928;6.856;2022-09-25T13:30:18;2.90;;;1.30;;
5042;SDS011;2540;50.928;6.856;2022-09-25T13:32:46;11.00;;;1.40;;
5042;SDS011;2540;50.928;6.856;2022-09-25T13:35:15;3.10;;;1.20;;
5042;SDS011;2540;50.928;6.856;2022-09-25T13:37:41;2.90;;;1.00;;
5042;SDS011;2540;50.928;6.856;2022-09-25T13:40:19;5.73;;;1.30;;
5042;SDS011;2540;50.928;6.856;2022-09-25T13:43:25;3.43;;;1.10;;
5042;SDS011;2540;50.928;6.856;2022-09-25T13:48:34;3.30;;;1.20;;
5042;SDS011;2540;50.928;6.856;2022-09-25T13:53:52;3.20;;;0.77;;
5042;SDS011;2540;50.928;6.856;2022-09-25T13:56:21;3.90;;;1.03;;
5042;SDS011;2540;50.928;6.856;2022-09-25T14:01:48;2.40;;;0.93;;
5042;SDS011;2540;50.928;6.856;2022-09-25T14:06:39;3.37;;;1.20;;
5042;SDS011;2540;50.928;6.856;2022-09-25T14:09:08;7.40;;;1.10;;
5042;SDS011;2540;50.928;6.856;2022-09-25T14:11:34;4.63;;;1.20;;
5042;SDS011;2540;50.928;6.856;2022-09-25T14:14:04;4.80;;;1.10;;
5042;SDS011;2540;50.928;6.856;2022-09-25T14:16:31;3.93;;;1.00;;
5042;SDS011;2540;50.928;6.856;2022-09-25T14:18:57;2.77;;;0.80;;
5042;SDS011;2540;50.928;6.856;2022-09-25T14:21:22;10.00;;;1.13;;
5042;SDS011;2540;50.928;6.856;2022-09-25T14:23:51;3.00;;;1.00;;
5042;SDS011;2540;50.928;6.856;2022-09-25T14:26:18;6.63;;;1.20;;
5042;SDS011;2540;50.928;6.856;2022-09-25T14:28:46;2.37;;;0.77;;
5042;SDS011;2540;50.928;6.856;2022-09-25T14:34:00;3.73;;;1.73;;
5042;SDS011;2540;50.928;6.856;2022-09-25T14:36:31;10.70;;;1.17;;
5042;SDS011;2540;50.928;6.856;2022-09-25T14:41:58;1.33;;;0.77;;
5042;SDS011;2540;50.928;6.856;2022-09-25T14:44:33;4.37;;;1.07;;
5042;SDS011;2540;50.928;6.856;2022-09-25T14:47:01;2.93;;;1.00;;
5042;SDS011;2540;50.928;6.856;2022-09-25T14:49:37;1.50;;;1.00;;
5042;SDS011;2540;50.928;6.856;2022-09-25T14:52:07;0.97;;;0.70;;
5042;SDS011;2540;50.928;6.856;2022-09-25T14:54:33;2.40;;;1.00;;
5042;SDS011;2540;50.928;6.856;2022-09-25T14:57:00;4.23;;;1.03;;
5042;SDS011;2540;50.928;6.856;2022-09-25T14:59:48;2.20;;;0.70;;
5042;SDS011;2540;50.928;6.856;2022-09-25T15:04:39;3.13;;;0.80;;
5042;SDS011;2540;50.928;6.856;2022-09-25T15:07:12;9.53;;;0.90;;
5042;SDS011;2540;50.928;6.856;2022-09-25T15:09:42;1.27;;;0.73;;
5042;SDS011;2540;50.928;6.856;2022-09-25T15:12:15;6.10;;;0.80;;
5042;SDS011;2540;50.928;6.856;2022-09-25T15:14:55;1.30;;;0.87;;
5042;SDS011;2540;50.928;6.856;2022-09-25T15:17:21;5.07;;;0.80;;
5042;SDS011;2540;50.928;6.856;2022-09-25T15:19:46;6.53;;;1.00;;
5042;SDS011;2540;50.928;6.856;2022-09-25T15:22:16;3.90;;;0.80;;
5042;SDS011;2540;50.928;6.856;2022-09-25T15:24:50;2.20;;;0.70;;
5042;SDS011;2540;50.928;6.856;2022-09-25T15:27:18;1.60;;;0.80;;
5042;SDS011;2540;50.928;6.856;2022-09-25T15:29:44;2.60;;;0.80;;
5042;SDS011;2540;50.928;6.856;2022-09-25T15:32:20;4.13;;;1.07;;
5042;SDS011;2540;50.928;6.856;2022-09-25T15:34:46;1.33;;;0.80;;
5042;SDS011;2540;50.928;6.856;2022-09-25T15:37:24;4.83;;;0.67;;
5042;SDS011;2540;50.928;6.856;2022-09-25T15:39:51;1.83;;;0.77;;
5042;SDS011;2540;50.928;6.856;2022-09-25T15:42:17;2.83;;;0.83;;
5042;SDS011;2540;50.928;6.856;2022-09-25T15:44:42;2.70;;;1.10;;
5042;SDS011;2540;50.928;6.856;2022-09-25T15:47:30;2.30;;;0.60;;
5042;SDS011;2540;50.928;6.856;2022-09-25T15:49:53;3.07;;;1.20;;
5042;SDS011;2540;50.928;6.856;2022-09-25T15:52:21;2.93;;;1.63;;
5042;SDS011;2540;50.928;6.856;2022-09-25T15:54:47;6.73;;;1.03;;
5042;SDS011;2540;50.928;6.856;2022-09-25T15:57:14;1.20;;;0.90;;
5042;SDS011;2540;50.928;6.856;2022-09-25T15:59:44;1.10;;;0.80;;
5042;SDS011;2540;50.928;6.856;2022-09-25T16:02:28;3.03;;;1.10;;
5042;SDS011;2540;50.928;6.856;2022-09-25T16:05:13;2.27;;;0.80;;
5042;SDS011;2540;50.928;6.856;2022-09-25T16:07:40;3.33;;;1.07;;
5042;SDS011;2540;50.928;6.856;2022-09-25T16:12:41;3.80;;;1.07;;
5042;SDS011;2540;50.928;6.856;2022-09-25T16:17:51;1.53;;;0.80;;
5042;SDS011;2540;50.928;6.856;2022-09-25T16:20:27;7.30;;;1.00;;
5042;SDS011;2540;50.928;6.856;2022-09-25T16:22:54;1.33;;;0.70;;
5042;SDS011;2540;50.928;6.856;2022-09-25T16:25:25;2.10;;;0.80;;
5042;SDS011;2540;50.928;6.856;2022-09-25T16:27:53;2.67;;;0.80;;
5042;SDS011;2540;50.928;6.856;2022-09-25T16:30:20;2.00;;;0.90;;
5042;SDS011;2540;50.928;6.856;2022-09-25T16:32:47;7.20;;;0.80;;
5042;SDS011;2540;50.928;6.856;2022-09-25T16:35:21;3.60;;;0.90;;
5042;SDS011;2540;50.928;6.856;2022-09-25T16:37:49;2.43;;;0.90;;
5042;SDS011;2540;50.928;6.856;2022-09-25T16:42:42;1.30;;;1.00;;
5042;SDS011;2540;50.928;6.856;2022-09-25T16:45:19;1.27;;;0.73;;
5042;SDS011;2540;50.928;6.856;2022-09-25T16:47:47;1.03;;;0.90;;
5042;SDS011;2540;50.928;6.856;2022-09-25T16:50:13;2.00;;;0.87;;
5042;SDS011;2540;50.928;6.856;2022-09-25T16:52:38;5.40;;;0.97;;
5042;SDS011;2540;50.928;6.856;2022-09-25T16:55:05;1.77;;;0.80;;
5042;SDS011;2540;50.928;6.856;2022-09-25T16:57:35;3.80;;;0.73;;
5042;SDS011;2540;50.928;6.856;2022-09-25T17:00:00;2.10;;;1.00;;
5042;SDS011;2540;50.928;6.856;2022-09-25T17:04:56;1.10;;;0.80;;
5042;SDS011;2540;50.928;6.856;2022-09-25T17:07:21;6.03;;;1.37;;
5042;SDS011;2540;50.928;6.856;2022-09-25T17:09:47;1.43;;;0.90;;
5042;SDS011;2540;50.928;6.856;2022-09-25T17:12:22;1.67;;;0.97;;
5042;SDS011;2540;50.928;6.856;2022-09-25T17:14:47;1.87;;;1.10;;
5042;SDS011;2540;50.928;6.856;2022-09-25T17:17:14;3.17;;;1.17;;
5042;SDS011;2540;50.928;6.856;2022-09-25T17:19:41;3.30;;;1.30;;
5042;SDS011;2540;50.928;6.856;2022-09-25T17:22:07;4.53;;;1.20;;
5042;SDS011;2540;50.928;6.856;2022-09-25T17:24:33;2.37;;;1.00;;
5042;SDS011;2540;50.928;6.856;2022-09-25T17:26:58;5.37;;;1.60;;
5042;SDS011;2540;50.928;6.856;2022-09-25T17:29:23;4.87;;;1.37;;
5042;SDS011;2540;50.928;6.856;2022-09-25T17:31:48;1.90;;;0.93;;
5042;SDS011;2540;50.928;6.856;2022-09-25T17:34:17;3.30;;;1.40;;
5042;SDS011;2540;50.928;6.856;2022-09-25T17:36:43;42.13;;;11.23;;
5042;SDS011;2540;50.928;6.856;2022-09-25T17:39:08;7.03;;;1.83;;
5042;SDS011;2540;50.928;6.856;2022-09-25T17:41:34;6.90;;;2.60;;
5042;SDS011;2540;50.928;6.856;2022-09-25T17:44:00;1.70;;;0.87;;
5042;SDS011;2540;50.928;6.856;2022-09-25T17:46:27;2.00;;;1.00;;